Date,TemperatureHighF,TemperatureAvgF,TemperatureLowF,DewpointHighF,DewpointAvgF,DewpointLowF,HumidityHigh,HumidityAvg,HumidityLow,PressureMaxIn,PressureMinIn,WindSpeedMaxMPH,WindSpeedAvgMPH,GustSpeedMaxMPH,PrecipitationSumIn
2013-2-1,-3.6,-17.6,-26.9,-99.9,-99.9,-99.9,0,0,100,30.24,30.06,3,1,5,0.00
2013-2-2,10.4,-4.0,-25.1,-99.9,-99.9,-99.9,0,0,100,30.21,29.97,4,2,10,0.00
2013-2-3,14.9,2.8,-9.0,-99.9,-99.9,-99.9,0,0,100,30.12,30.03,8,1,14,0.00
2013-2-4,16.5,7.6,-5.8,-99.9,-99.9,-99.9,0,0,100,30.03,29.59,6,3,11,0.00
2013-2-5,6.4,-0.5,-8.0,-99.9,-99.9,-99.9,0,0,100,30.09,29.74,6,4,11,0.00
2013-2-6,13.8,5.1,-0.6,-99.9,-99.9,-99.9,0,0,100,30.27,29.94,5,2,9,0.00
2013-2-7,16.3,7.8,-1.5,-99.9,-99.9,-99.9,0,0,100,30.33,30.24,4,2,8,0.00
2013-2-8,27.7,14.9,-0.9,-99.9,-99.9,-99.9,0,0,100,30.27,29.97,9,4,15,0.00
2013-2-9,32.7,21.8,8.4,-99.9,-99.9,-99.9,0,0,100,29.97,29.85,6,2,12,0.00
2013-2-10,25.3,16.9,7.9,24.4,-45.0,-99.9,96,41,75,29.97,29.88,10,3,17,0.00
2013-2-11,26.4,14.5,8.1,-99.9,-99.9,-99.9,0,0,100,30.03,29.74,10,5,22,0.00
2013-2-12,37.9,22.4,10.8,19.4,-28.5,-99.9,80,37,43,29.74,29.68,5,2,11,0.00
2013-2-13,31.8,20.0,9.5,20.3,-36.0,-99.9,84,41,52,29.91,29.65,7,2,12,0.00
2013-2-14,16.5,5.8,-2.2,-99.9,-99.9,-99.9,0,0,100,30.30,29.91,7,3,13,0.00
2013-2-15,15.3,3.3,-10.1,-99.9,-99.9,-99.9,0,0,100,30.36,30.18,6,1,11,0.00
2013-2-16,18.7,10.3,0.3,-99.9,-99.9,-99.9,0,0,100,30.18,29.79,6,4,12,0.00
2013-2-17,45.1,23.7,15.3,22.3,-42.4,-99.9,92,36,40,29.79,29.44,12,6,25,0.00
2013-2-18,18.7,0.2,-10.5,15.8,-94.6,-99.9,88,4,83,30.33,29.68,16,13,30,0.00
2013-2-19,-5.3,-11.8,-17.5,-99.9,-99.9,-99.9,0,0,100,30.56,30.33,10,6,17,0.00
2013-2-20,2.8,-7.3,-18.4,-99.9,-99.9,-99.9,0,0,100,30.56,30.36,7,3,11,0.00
2013-2-21,19.9,9.3,2.8,-99.9,-99.9,-99.9,0,0,100,30.39,30.24,8,6,12,0.00
2013-2-22,26.8,10.4,-1.3,-99.9,-99.9,-99.9,0,0,100,30.24,29.91,4,1,6,0.00
2013-2-23,21.9,9.7,-5.1,-99.9,-99.9,-99.9,0,0,100,29.91,29.82,6,3,11,0.00
2013-2-24,32.7,14.9,4.5,12.0,-70.5,-99.9,61,13,41,30.00,29.88,5,2,6,0.00
2013-2-25,35.8,20.6,6.3,-99.9,-99.9,-99.9,0,0,100,30.00,29.85,5,1,9,0.00
2013-2-26,24.4,16.1,5.9,16.7,-32.1,-99.9,83,41,47,30.15,29.88,6,2,11,0.00
2013-2-27,25.0,20.4,12.4,15.3,3.3,-99.9,81,61,54,30.36,30.15,10,6,21,0.00
2013-2-28,19.8,9.7,0.1,-99.9,-99.9,-99.9,0,0,100,30.41,30.36,5,2,8,0.00